Time;durP1;ratioP1;P1;durP2;ratioP2;P2;SDS_P1;SDS_P2;PMS_P1;PMS_P2;Temp;Humidity;BMP_temperature;BMP_pressure;BME280_temperature;BME280_humidity;BME280_pressure;Samples;Min_cycle;Max_cycle;Signal;HPM_P1;HPM_P2
2021/04/28 02:50:40;;;;;;;5.60;3.55;;;7.80;37.00;;;;;;6154177;23;20268;-93
2021/04/28 02:53:10;;;;;;;5.55;3.92;;;8.00;37.30;;;;;;6133739;23;20210;-93
2021/04/28 04:26:48;;;;;;;5.10;4.50;;;7.10;38.50;;;;;;6165388;23;20732;-93
2021/04/28 04:29:14;;;;;;;3.78;3.33;;;7.10;38.60;;;;;;6149675;23;20203;-91
2021/04/28 04:31:42;;;;;;;6.17;4.70;;;7.00;38.50;;;;;;6155734;23;20151;-91
2021/04/28 04:34:08;;;;;;;5.50;4.10;;;7.10;38.80;;;;;;6155914;23;20422;-91
2021/04/28 04:37:08;;;;;;;5.17;4.70;;;7.30;39.10;;;;;;6156166;23;20180;-92
2021/04/28 04:39:33;;;;;;;6.18;5.57;;;7.30;39.00;;;;;;6156043;23;20163;-92
2021/04/28 04:42:00;;;;;;;6.43;5.90;;;7.10;39.30;;;;;;6156557;23;20144;-91
2021/04/28 04:44:26;;;;;;;6.63;5.93;;;7.10;39.20;;;;;;6157031;23;20151;-92
2021/04/28 04:47:25;;;;;;;6.80;6.20;;;7.00;39.30;;;;;;6157276;23;20144;-92
2021/04/28 04:49:50;;;;;;;5.53;5.03;;;7.20;39.10;;;;;;6156871;23;20148;-91
2021/04/28 04:52:16;;;;;;;6.57;5.40;;;7.40;39.30;;;;;;6156005;23;20163;-90
2021/04/28 04:54:44;;;;;;;5.73;5.27;;;7.50;39.20;;;;;;6156220;23;20658;-92
2021/04/28 04:57:09;;;;;;;6.05;4.93;;;7.50;38.70;;;;;;6156141;23;20147;-90
2021/04/28 05:00:06;;;;;;;6.17;4.40;;;7.50;38.70;;;;;;6159917;23;20556;-92
2021/04/28 05:05:54;;;;;;;4.60;4.20;;;7.50;38.30;;;;;;6161804;23;20211;-95
2021/04/28 05:11:42;;;;;;;5.47;4.55;;;7.80;38.60;;;;;;6162060;23;20135;-95
2021/04/28 05:17:30;;;;;;;8.57;5.75;;;7.50;38.00;;;;;;6160590;23;20139;-95
2021/04/28 05:23:17;;;;;;;7.10;6.35;;;7.90;38.50;;;;;;6162266;23;20135;-90
2021/04/28 05:32:35;;;;;;;9.77;7.95;;;8.00;39.00;;;;;;6172132;23;20143;-93
2021/04/28 05:35:12;;;;;;;7.88;6.95;;;8.20;39.10;;;;;;6139620;23;20493;-93
2021/04/28 05:37:39;;;;;;;7.97;7.18;;;8.10;39.30;;;;;;6170655;23;20148;-95
2021/04/28 05:40:07;;;;;;;8.93;6.95;;;8.20;39.00;;;;;;6177373;23;20136;-96
2021/04/28 10:36:20;;;;;;;4.10;3.80;;;23.70;11.30;;;;;;6165656;23;20846;-94
2021/04/28 10:38:55;;;;;;;5.23;4.77;;;23.40;10.20;;;;;;6163381;23;20354;-92
2021/04/28 10:41:40;;;;;;;7.70;5.70;;;23.20;11.30;;;;;;6172335;23;20381;-92
2021/04/28 10:50:40;;;;;;;4.33;3.80;;;23.30;11.30;;;;;;6071877;23;20381;-91
2021/04/28 10:53:27;;;;;;;4.50;4.10;;;23.60;11.50;;;;;;6076047;23;20441;-93
2021/04/28 10:56:13;;;;;;;4.70;4.30;;;23.70;11.80;;;;;;6081990;23;20375;-93
2021/04/28 10:58:44;;;;;;;5.63;4.90;;;24.30;11.40;;;;;;6079095;23;20484;-92
2021/04/28 11:01:47;;;;;;;4.80;4.40;;;24.30;10.50;;;;;;6077500;23;20367;-90
2021/04/28 11:04:13;;;;;;;4.50;4.10;;;23.70;11.10;;;;;;6072975;23;20351;-92
2021/04/28 11:06:42;;;;;;;5.80;4.57;;;23.20;11.50;;;;;;6073730;23;20392;-92
2021/04/28 11:10:00;;;;;;;4.80;4.37;;;23.00;12.60;;;;;;6074759;23;20379;-92
2021/04/28 11:12:26;;;;;;;5.87;4.53;;;23.20;12.40;;;;;;6076811;23;20392;-92
2021/04/28 11:18:43;;;;;;;5.63;3.97;;;23.90;10.80;;;;;;6145381;23;20210;-93
2021/04/28 11:21:52;;;;;;;5.30;4.80;;;23.90;11.40;;;;;;6163434;23;20383;-92
2021/04/28 11:24:18;;;;;;;6.20;5.43;;;24.50;12.50;;;;;;6161352;23;20777;-89
2021/04/28 11:26:50;;;;;;;5.07;4.03;;;24.80;12.10;;;;;;6133982;23;20375;-92
2021/04/28 11:29:24;;;;;;;5.93;5.13;;;25.00;10.70;;;;;;6159606;23;20136;-91
2021/04/28 11:32:20;;;;;;;4.80;4.40;;;25.20;10.90;;;;;;6158253;23;20426;-90
2021/04/28 11:34:46;;;;;;;5.70;3.80;;;25.50;10.80;;;;;;6134774;23;20397;-90
2021/04/28 11:37:24;;;;;;;4.90;4.23;;;25.70;10.20;;;;;;6159918;23;20371;-89
2021/04/28 11:39:50;;;;;;;5.00;4.10;;;25.80;9.20;;;;;;6159088;23;20163;-90
2021/04/28 11:46:29;;;;;;;4.30;3.90;;;25.10;9.10;;;;;;6160346;23;20187;-90
2021/04/28 11:48:57;;;;;;;4.50;4.03;;;24.80;10.80;;;;;;6159928;23;20350;-89
2021/04/28 11:51:35;;;;;;;4.83;3.70;;;24.80;10.80;;;;;;6159010;23;20707;-89
2021/04/28 11:54:03;;;;;;;6.50;5.90;;;25.00;11.00;;;;;;6158958;23;20389;-89
2021/04/28 11:56:38;;;;;;;7.10;6.23;;;25.20;13.80;;;;;;6158079;23;20810;-89
2021/04/28 11:59:25;;;;;;;10.23;7.60;;;25.80;14.60;;;;;;6157829;23;20427;-89
2021/04/28 12:01:59;;;;;;;7.53;6.83;;;25.60;13.70;;;;;;6157566;23;20667;-89
2021/04/28 12:04:49;;;;;;;12.80;7.50;;;25.80;13.70;;;;;;6157510;23;20465;-88
2021/04/28 12:07:16;;;;;;;7.40;6.73;;;25.80;13.20;;;;;;6158175;23;20349;-88
2021/04/28 12:09:53;;;;;;;8.37;7.57;;;25.90;13.20;;;;;;6157028;23;20365;-89
2021/04/28 12:12:22;;;;;;;8.17;6.50;;;26.00;13.00;;;;;;6157118;23;20350;-87
2021/04/28 12:18:32;;;;;;;7.50;6.70;;;26.20;13.10;;;;;;6159418;23;20318;-90
2021/04/28 12:21:00;;;;;;;7.63;6.93;;;26.20;13.10;;;;;;6157485;23;20342;-91
2021/04/28 12:23:40;;;;;;;7.73;6.93;;;25.90;13.70;;;;;;6157868;23;20390;-90
2021/04/28 12:26:07;;;;;;;9.03;8.13;;;25.80;14.20;;;;;;6160690;23;20371;-90
2021/04/28 12:28:48;;;;;;;9.50;7.17;;;25.40;13.60;;;;;;6158678;23;20372;-90
2021/04/28 12:31:52;;;;;;;8.30;7.50;;;24.80;14.20;;;;;;6158051;23;20409;-90
2021/04/28 12:34:19;;;;;;;9.17;7.13;;;24.40;14.50;;;;;;6157373;23;20397;-89
2021/04/28 12:40:10;;;;;;;10.40;8.97;;;24.00;15.70;;;;;;6160265;23;20640;-90
2021/04/28 12:42:43;;;;;;;8.07;7.27;;;24.00;15.30;;;;;;6157729;23;20413;-90
2021/04/28 12:45:12;;;;;;;6.77;6.27;;;24.10;16.00;;;;;;6157256;23;20365;-90
2021/04/28 12:47:39;;;;;;;7.50;6.80;;;24.40;15.40;;;;;;6157724;23;20377;-89
2021/04/28 12:50:31;;;;;;;8.13;5.77;;;24.60;15.20;;;;;;6159023;23;20383;-91
2021/04/28 12:53:08;;;;;;;6.27;5.67;;;24.90;14.20;;;;;;6158660;23;20386;-90
2021/04/28 12:55:38;;;;;;;6.77;5.90;;;25.20;14.40;;;;;;6158488;23;20408;-90
2021/04/28 12:58:41;;;;;;;6.40;5.50;;;25.40;13.40;;;;;;6161666;23;20380;-91
2021/04/28 13:01:40;;;;;;;6.07;5.47;;;25.60;13.20;;;;;;6159706;23;20358;-92
2021/04/28 13:04:20;;;;;;;6.63;6.03;;;25.80;13.70;;;;;;6151042;23;20408;-91
2021/04/28 13:06:45;;;;;;;6.77;6.17;;;26.00;14.20;;;;;;6160036;23;20354;-91
2021/04/28 13:09:16;;;;;;;8.07;6.73;;;26.00;13.10;;;;;;6159632;23;20727;-92
2021/04/28 13:11:45;;;;;;;7.60;5.40;;;26.10;12.90;;;;;;6133809;23;20152;-89
2021/04/28 13:14:50;;;;;;;6.43;5.83;;;26.20;12.80;;;;;;6159360;23;20853;-90
2021/04/28 13:17:15;;;;;;;10.30;5.43;;;26.30;12.30;;;;;;6158381;23;20787;-89
2021/04/28 13:19:43;;;;;;;6.73;5.80;;;26.40;12.20;;;;;;6159104;23;20357;-90
2021/04/28 13:22:15;;;;;;;6.60;6.00;;;26.20;11.90;;;;;;6160801;23;20148;-92
2021/04/28 13:24:51;;;;;;;6.00;5.50;;;25.70;12.60;;;;;;6161015;23;20685;-90
2021/04/28 13:27:28;;;;;;;8.07;6.40;;;25.60;13.10;;;;;;6158038;23;20717;-91
2021/04/28 13:30:01;;;;;;;6.30;5.70;;;25.70;12.40;;;;;;6157953;23;20358;-90
2021/04/28 13:32:57;;;;;;;5.10;4.50;;;25.90;12.60;;;;;;6158031;23;20417;-89
2021/04/28 13:35:24;;;;;;;7.97;5.30;;;26.20;12.00;;;;;;6158189;23;20422;-89
2021/04/28 13:38:05;;;;;;;5.30;4.80;;;26.30;12.40;;;;;;6157948;23;20699;-89
2021/04/28 13:40:42;;;;;;;7.53;5.17;;;26.50;11.90;;;;;;6158820;23;20433;-89
2021/04/28 13:43:11;;;;;;;6.03;4.00;;;26.70;11.90;;;;;;6158899;23;20364;-90
2021/04/28 13:45:41;;;;;;;4.73;4.20;;;26.90;11.90;;;;;;6161055;23;20375;-91
2021/04/28 13:48:08;;;;;;;6.63;4.50;;;27.00;11.80;;;;;;6160338;23;20492;-89
2021/04/28 13:51:05;;;;;;;5.63;4.57;;;26.90;12.00;;;;;;6161403;23;20337;-91
2021/04/28 13:53:31;;;;;;;5.27;4.87;;;26.90;11.60;;;;;;6161118;23;20382;-91
2021/04/28 13:55:58;;;;;;;5.80;4.37;;;26.80;11.30;;;;;;6161219;23;20351;-90
2021/04/28 13:58:54;;;;;;;5.77;4.30;;;26.40;11.70;;;;;;6160622;23;20430;-91
2021/04/28 14:01:20;;;;;;;4.23;3.90;;;25.90;10.50;;;;;;6159455;23;20436;-91
2021/04/28 14:03:47;;;;;;;3.73;3.43;;;25.60;10.50;;;;;;6159688;23;20334;-90
2021/04/28 14:07:06;;;;;;;7.23;4.10;;;25.70;11.00;;;;;;6159059;23;20681;-90
2021/04/28 14:09:32;;;;;;;3.80;3.40;;;25.60;10.70;;;;;;6160717;23;20354;-90
2021/04/28 14:15:11;;;;;;;5.40;3.70;;;25.70;11.70;;;;;;6159708;23;20171;-90
2021/04/28 14:17:37;;;;;;;4.40;4.00;;;25.70;12.30;;;;;;6157649;23;20358;-90
2021/04/28 14:20:04;;;;;;;5.07;3.90;;;25.60;11.70;;;;;;6157889;23;20430;-90
2021/04/28 14:22:54;;;;;;;4.97;4.50;;;25.60;12.40;;;;;;6158351;23;20379;-90
2021/04/28 14:25:20;;;;;;;5.00;3.83;;;25.70;11.40;;;;;;6157797;23;20379;-91
2021/04/28 14:27:46;;;;;;;3.67;3.37;;;25.90;12.20;;;;;;6157905;23;20346;-91
2021/04/28 14:37:35;;;;;;;3.07;2.83;;;26.40;10.80;;;;;;6159870;23;20321;-88
2021/04/28 14:40:01;;;;;;;3.33;3.03;;;26.40;10.10;;;;;;6133570;23;20377;-89
2021/04/28 14:42:35;;;;;;;3.40;3.10;;;26.50;9.10;;;;;;6134976;23;20372;-89
2021/04/28 14:45:00;;;;;;;5.33;3.17;;;26.70;10.30;;;;;;6134614;23;20148;-89
2021/04/28 14:47:42;;;;;;;5.63;3.70;;;26.80;9.60;;;;;;6132922;23;20462;-88
2021/04/28 14:50:08;;;;;;;5.73;2.80;;;26.90;9.40;;;;;;6132365;23;20151;-89
2021/04/28 14:52:34;;;;;;;3.23;3.03;;;26.80;9.90;;;;;;6161266;23;20349;-88
2021/04/28 14:55:27;;;;;;;3.90;2.93;;;26.40;9.10;;;;;;6134986;23;20719;-88
2021/04/28 14:57:52;;;;;;;3.00;2.70;;;26.60;9.10;;;;;;6133691;23;20144;-89
2021/04/28 15:00:19;;;;;;;7.43;3.43;;;26.40;9.80;;;;;;6133185;23;20374;-89
2021/04/28 15:02:50;;;;;;;5.43;3.53;;;26.50;10.10;;;;;;6131290;23;20140;-89
2021/04/28 15:05:16;;;;;;;4.00;3.10;;;26.20;9.60;;;;;;6131817;23;20730;-89
2021/04/28 15:07:45;;;;;;;4.93;3.53;;;25.80;9.60;;;;;;6132534;23;20353;-88
2021/04/28 15:10:11;;;;;;;3.93;3.07;;;25.60;10.00;;;;;;6158785;23;20170;-88
2021/04/28 15:12:46;;;;;;;2.80;2.60;;;25.60;9.90;;;;;;6134854;23;20374;-89
2021/04/28 15:15:12;;;;;;;3.03;2.83;;;25.90;10.40;;;;;;6132489;23;20482;-88
2021/04/28 15:17:41;;;;;;;4.77;2.90;;;26.20;10.40;;;;;;6131960;23;20354;-88
2021/04/28 15:20:13;;;;;;;6.93;3.00;;;26.20;9.90;;;;;;6132853;23;20341;-87
2021/04/28 15:22:38;;;;;;;2.90;2.60;;;26.00;10.60;;;;;;6134010;23;20455;-91
2021/04/28 15:25:07;;;;;;;2.60;2.40;;;26.20;11.30;;;;;;6133829;23;20350;-87
2021/04/28 15:27:34;;;;;;;4.10;2.90;;;26.50;10.60;;;;;;6132605;23;20541;-89
2021/04/28 15:30:02;;;;;;;3.30;3.00;;;26.80;10.20;;;;;;6132066;23;20805;-89
2021/04/28 15:32:30;;;;;;;3.47;3.00;;;26.90;10.20;;;;;;6131775;23;20722;-88
2021/04/28 15:34:55;;;;;;;3.87;2.90;;;26.80;10.20;;;;;;6131674;23;20493;-87
2021/04/28 15:37:21;;;;;;;3.47;2.73;;;26.80;9.80;;;;;;6132001;23;20401;-88
2021/04/28 15:39:47;;;;;;;3.27;2.97;;;26.60;9.90;;;;;;6131780;23;20511;-89
2021/04/28 15:42:27;;;;;;;3.50;2.90;;;26.60;10.30;;;;;;6131654;23;20374;-86
2021/04/28 15:44:53;;;;;;;3.40;3.10;;;26.60;9.90;;;;;;6132163;23;20157;-87
2021/04/28 15:47:28;;;;;;;3.10;2.80;;;26.70;9.80;;;;;;6132395;23;20759;-86
2021/04/28 15:49:54;;;;;;;4.03;2.80;;;27.00;10.10;;;;;;6132180;23;20158;-86
2021/04/28 15:52:20;;;;;;;4.90;3.47;;;27.00;10.20;;;;;;6132181;23;20358;-89
2021/04/28 15:54:45;;;;;;;7.30;3.23;;;26.70;10.00;;;;;;6135464;23;20183;-88
2021/04/28 15:57:17;;;;;;;4.83;3.03;;;26.30;10.30;;;;;;6160790;23;21068;-88
2021/04/28 15:59:43;;;;;;;4.27;3.00;;;26.20;10.60;;;;;;6131665;23;20151;-88
2021/04/28 16:02:16;;;;;;;2.60;2.40;;;26.10;10.80;;;;;;6131189;23;20355;-88
2021/04/28 16:04:43;;;;;;;4.27;3.17;;;26.00;11.00;;;;;;6131788;23;20234;-87
2021/04/28 16:07:09;;;;;;;3.00;2.80;;;25.90;11.10;;;;;;6131341;23;20354;-88
2021/04/28 16:09:35;;;;;;;3.00;2.70;;;25.60;11.30;;;;;;6131973;23;20365;-89
2021/04/28 16:12:05;;;;;;;4.30;2.60;;;25.30;11.50;;;;;;6132029;23;20413;-88
2021/04/28 16:14:30;;;;;;;5.50;2.40;;;24.90;12.00;;;;;;6132988;23;20183;-90
2021/04/28 16:17:04;;;;;;;2.73;2.50;;;24.90;12.30;;;;;;6132329;23;20373;-89
2021/04/28 16:19:30;;;;;;;4.90;3.10;;;25.10;12.30;;;;;;6132182;23;20143;-88
2021/04/28 16:22:16;;;;;;;2.93;2.43;;;25.00;12.30;;;;;;6131738;23;20346;-89
2021/04/28 16:24:42;;;;;;;3.30;3.00;;;25.00;12.50;;;;;;6131091;23;20156;-88
2021/04/28 16:27:39;;;;;;;3.70;2.57;;;25.20;12.50;;;;;;6131732;23;20357;-88
2021/04/28 16:30:06;;;;;;;3.03;2.77;;;25.20;12.10;;;;;;6134118;23;20160;-88
2021/04/28 16:32:31;;;;;;;3.17;2.50;;;25.30;12.20;;;;;;6131457;23;20361;-89
2021/04/28 16:34:57;;;;;;;5.23;4.73;;;25.20;12.00;;;;;;6132540;23;20459;-87
2021/04/28 16:37:30;;;;;;;3.93;3.23;;;25.40;12.30;;;;;;6134614;23;20178;-87
2021/04/28 16:39:56;;;;;;;3.13;2.83;;;25.30;12.10;;;;;;6133693;23;20140;-87
2021/04/28 16:42:22;;;;;;;7.57;6.90;;;25.00;12.00;;;;;;6133684;23;20377;-87
2021/04/28 16:44:47;;;;;;;6.07;3.47;;;25.00;12.70;;;;;;6135149;23;20148;-87
2021/04/28 16:47:25;;;;;;;4.70;3.13;;;25.10;12.50;;;;;;6133956;23;20171;-87
2021/04/28 16:49:53;;;;;;;3.40;2.60;;;25.20;12.30;;;;;;6132630;23;20642;-88
2021/04/28 16:52:20;;;;;;;3.13;2.70;;;25.20;12.50;;;;;;6132083;23;20813;-86
2021/04/28 16:54:45;;;;;;;3.53;3.10;;;25.20;12.50;;;;;;6133095;23;20402;-87
2021/04/28 16:57:29;;;;;;;5.27;3.07;;;25.40;12.40;;;;;;6160291;23;20387;-88
2021/04/28 16:59:55;;;;;;;6.00;2.73;;;25.50;12.40;;;;;;6135083;23;20155;-90
2021/04/28 17:02:22;;;;;;;2.63;2.40;;;25.50;12.00;;;;;;6135947;23;20830;-89
2021/04/28 17:04:48;;;;;;;3.20;2.70;;;25.60;11.70;;;;;;6136280;23;20223;-89
2021/04/28 17:07:33;;;;;;;3.20;2.80;;;25.80;11.90;;;;;;6134970;23;20361;-88
2021/04/28 17:09:59;;;;;;;3.87;2.90;;;25.80;12.10;;;;;;6138002;23;20537;-89
2021/04/28 17:12:32;;;;;;;2.87;2.57;;;25.80;12.20;;;;;;6137227;23;20357;-87
2021/04/28 17:14:58;;;;;;;7.30;3.10;;;25.70;12.40;;;;;;6161181;23;20203;-88
2021/04/28 17:17:29;;;;;;;4.20;2.60;;;25.70;12.60;;;;;;6160763;23;20334;-87
2021/04/28 17:19:59;;;;;;;2.47;2.27;;;25.60;11.90;;;;;;6133723;23;20144;-87
2021/04/28 17:22:27;;;;;;;4.90;2.30;;;25.50;12.10;;;;;;6133960;23;20399;-87
2021/04/28 17:24:53;;;;;;;2.93;2.63;;;25.60;12.20;;;;;;6135367;23;20354;-89
2021/04/28 17:27:45;;;;;;;3.27;3.00;;;25.50;12.30;;;;;;6160217;23;20648;-89
2021/04/28 17:30:11;;;;;;;3.00;2.40;;;25.60;12.40;;;;;;6133429;23;20401;-85
2021/04/28 17:32:55;;;;;;;3.20;2.90;;;25.60;12.30;;;;;;6132938;23;20346;-87
2021/04/28 17:35:22;;;;;;;3.57;2.93;;;25.70;12.60;;;;;;6135057;23;20401;-90
2021/04/28 17:37:47;;;;;;;3.50;3.13;;;25.60;12.90;;;;;;6138195;23;20680;-90
2021/04/28 17:43:35;;;;;;;6.40;5.80;;;25.40;14.70;;;;;;6164605;23;20138;-94
2021/04/28 17:46:08;;;;;;;6.73;6.10;;;25.20;15.90;;;;;;6136215;23;20437;-92
2021/04/28 17:48:35;;;;;;;5.67;5.17;;;24.80;17.00;;;;;;6138378;23;20152;-95
2021/04/28 17:51:03;;;;;;;6.63;5.93;;;24.50;17.30;;;;;;6136537;23;20379;-89
2021/04/28 17:53:29;;;;;;;7.40;5.37;;;24.40;17.80;;;;;;6138386;23;20384;-91
2021/04/28 17:55:54;;;;;;;5.70;5.20;;;24.30;18.00;;;;;;6135730;23;20408;-93
2021/04/28 17:59:09;;;;;;;5.70;4.83;;;24.20;18.10;;;;;;6134752;23;20358;-89
2021/04/28 18:01:41;;;;;;;7.67;6.37;;;24.00;17.90;;;;;;6142819;23;20639;-93
2021/04/28 18:04:06;;;;;;;4.87;4.33;;;24.10;18.30;;;;;;6136302;23;20376;-92
2021/04/28 18:07:09;;;;;;;7.33;6.23;;;24.00;18.20;;;;;;6136087;23;20378;-90
2021/04/28 18:09:35;;;;;;;6.33;5.57;;;24.00;18.00;;;;;;6135360;23;20170;-90
2021/04/28 18:12:51;;;;;;;12.73;5.50;;;23.90;18.00;;;;;;6135008;23;20358;-93
2021/04/28 18:15:17;;;;;;;5.67;4.97;;;23.90;17.90;;;;;;6135007;23;20650;-88
2021/04/28 18:17:44;;;;;;;4.90;4.50;;;23.80;18.70;;;;;;6136145;23;20375;-87
2021/04/28 18:20:17;;;;;;;6.80;5.57;;;23.80;18.80;;;;;;6148783;23;20354;-90
2021/04/28 18:23:03;;;;;;;7.17;5.43;;;23.80;19.50;;;;;;6134174;23;20389;-88
2021/04/28 18:25:28;;;;;;;11.10;5.77;;;23.80;19.60;;;;;;6134644;23;20375;-88
2021/04/28 18:27:55;;;;;;;7.00;4.87;;;23.80;19.50;;;;;;6132216;23;20372;-87
2021/04/28 18:30:22;;;;;;;6.03;5.53;;;23.80;19.50;;;;;;6134007;23;20488;-89
2021/04/28 18:32:48;;;;;;;5.00;4.53;;;23.80;19.20;;;;;;6132229;23;20377;-90
2021/04/28 18:35:13;;;;;;;9.77;5.77;;;23.80;19.00;;;;;;6133604;23;20404;-91
2021/04/28 18:38:02;;;;;;;10.53;5.33;;;23.80;20.00;;;;;;6133031;23;20144;-87
2021/04/28 18:40:28;;;;;;;6.40;4.90;;;23.00;19.20;;;;;;6132177;23;20376;-91
2021/04/28 18:43:00;;;;;;;5.57;5.07;;;22.20;20.30;;;;;;6131223;23;20148;-86
2021/04/28 18:45:27;;;;;;;6.30;4.07;;;21.60;21.10;;;;;;6131097;23;20350;-89
2021/04/28 18:48:00;;;;;;;5.40;4.87;;;21.40;21.50;;;;;;6133442;23;20370;-92
2021/04/28 18:50:25;;;;;;;4.40;4.00;;;21.10;21.90;;;;;;6135113;23;20350;-87
2021/04/28 18:52:54;;;;;;;5.37;4.07;;;20.90;22.30;;;;;;6132317;23;20368;-89
2021/04/28 18:55:21;;;;;;;8.43;4.90;;;20.40;22.90;;;;;;6136678;23;20419;-92
2021/04/28 18:57:49;;;;;;;5.40;4.03;;;20.30;23.40;;;;;;6136186;23;20749;-90
2021/04/28 19:00:15;;;;;;;7.30;3.30;;;20.10;24.60;;;;;;6134574;23;20593;-94
2021/04/28 19:03:20;;;;;;;4.87;4.40;;;19.70;25.00;;;;;;6135603;23;20372;-92
2021/04/28 19:05:46;;;;;;;5.10;3.80;;;19.40;25.80;;;;;;6135604;23;20432;-91
2021/04/28 19:08:46;;;;;;;5.40;3.80;;;19.00;26.00;;;;;;6132706;23;20440;-87
2021/04/28 19:11:13;;;;;;;4.53;4.17;;;19.10;26.30;;;;;;6133873;23;20404;-91
2021/04/28 19:14:12;;;;;;;6.10;4.70;;;19.00;26.50;;;;;;6133540;23;20380;-88
2021/04/28 19:16:38;;;;;;;3.90;3.60;;;18.80;26.40;;;;;;6134392;23;20369;-91
2021/04/28 19:22:16;;;;;;;3.60;3.30;;;19.00;26.10;;;;;;6161003;23;20144;-92
2021/04/28 19:24:48;;;;;;;4.43;3.37;;;19.30;26.20;;;;;;6134138;23;20372;-92
2021/04/28 19:27:14;;;;;;;5.13;3.50;;;19.60;26.10;;;;;;6133935;23;20386;-93
2021/04/28 19:30:33;;;;;;;3.73;3.03;;;19.50;26.10;;;;;;6138007;23;20367;-91
2021/04/28 19:33:41;;;;;;;4.23;3.73;;;19.50;26.30;;;;;;6136205;23;20371;-92
2021/04/28 19:36:07;;;;;;;3.83;3.53;;;19.30;27.00;;;;;;6136869;23;20881;-92
2021/04/28 19:39:17;;;;;;;3.87;3.27;;;19.20;27.30;;;;;;6134386;23;20377;-92
2021/04/28 19:41:43;;;;;;;7.53;3.40;;;19.10;27.90;;;;;;6133139;23;20364;-92
2021/04/28 19:47:54;;;;;;;3.63;2.97;;;18.90;27.60;;;;;;6160469;23;20338;-92
2021/04/28 19:50:20;;;;;;;7.50;3.80;;;19.10;27.80;;;;;;6134472;23;20466;-91
2021/04/28 19:53:04;;;;;;;3.77;3.47;;;19.20;27.80;;;;;;6134034;23;20850;-87
2021/04/28 19:55:41;;;;;;;5.67;3.90;;;19.20;28.20;;;;;;6131979;23;20422;-88
2021/04/28 19:58:08;;;;;;;3.80;3.47;;;19.00;28.20;;;;;;6132989;23;20463;-89
2021/04/28 20:00:34;;;;;;;5.50;3.50;;;19.80;29.10;;;;;;6133439;23;20835;-90
2021/04/28 20:03:26;;;;;;;4.80;4.10;;;19.00;29.00;;;;;;6133535;23;20381;-94
2021/04/28 20:05:53;;;;;;;3.83;3.43;;;19.10;30.40;;;;;;6134593;23;20151;-91
2021/04/28 20:08:23;;;;;;;5.37;4.40;;;18.90;30.70;;;;;;6135599;23;20372;-93
2021/04/28 20:11:02;;;;;;;8.23;4.20;;;19.40;31.80;;;;;;6135186;23;20354;-90
2021/04/28 20:13:29;;;;;;;6.50;4.37;;;19.30;32.20;;;;;;6134258;23;20387;-90
2021/04/28 20:16:32;;;;;;;4.97;4.57;;;19.30;32.00;;;;;;6132450;23;20429;-91
2021/04/28 20:18:58;;;;;;;6.90;4.67;;;19.20;33.60;;;;;;6132207;23;20568;-90
2021/04/28 20:21:31;;;;;;;5.70;4.20;;;19.00;35.00;;;;;;6133475;23;20375;-89
2021/04/28 20:24:03;;;;;;;5.10;4.70;;;18.90;36.20;;;;;;6132329;23;20438;-90
2021/04/28 20:26:29;;;;;;;6.83;5.20;;;19.10;37.90;;;;;;6133178;23;20382;-91
2021/04/28 20:28:56;;;;;;;6.07;5.40;;;18.50;38.30;;;;;;6134145;23;20694;-90
2021/04/28 20:34:57;;;;;;;5.40;4.90;;;18.80;40.30;;;;;;6159302;23;20457;-91
2021/04/28 20:37:30;;;;;;;5.83;5.37;;;18.90;41.90;;;;;;6134670;23;20384;-90
2021/04/28 20:39:55;;;;;;;6.30;5.70;;;19.00;41.70;;;;;;6133504;23;20196;-91
2021/04/28 20:42:27;;;;;;;6.40;5.83;;;19.00;42.90;;;;;;6134274;23;20388;-92
2021/04/28 20:44:54;;;;;;;4.87;4.53;;;18.90;44.50;;;;;;6132709;23;20159;-92
2021/04/28 20:47:30;;;;;;;9.10;5.90;;;18.60;44.20;;;;;;6127273;23;20410;-89
2021/04/28 20:49:56;;;;;;;8.87;6.80;;;18.70;44.30;;;;;;6126676;23;20391;-91
2021/04/28 20:52:54;;;;;;;6.33;5.73;;;18.70;44.80;;;;;;6132564;23;20387;-93
2021/04/28 20:55:20;;;;;;;7.33;5.03;;;18.50;44.70;;;;;;6134571;23;20427;-93
2021/04/28 20:58:24;;;;;;;6.50;5.90;;;18.60;45.50;;;;;;6135512;23;20379;-90
2021/04/28 21:00:51;;;;;;;6.07;5.60;;;18.60;45.40;;;;;;6135084;23;20148;-93
2021/04/28 21:03:54;;;;;;;7.40;6.80;;;18.10;46.50;;;;;;6136378;23;20803;-92
2021/04/28 21:06:21;;;;;;;7.00;6.40;;;18.20;48.10;;;;;;6134943;23;20447;-93
2021/04/28 21:08:48;;;;;;;7.00;6.50;;;18.10;48.10;;;;;;6135852;23;20235;-93
2021/04/28 21:11:13;;;;;;;6.87;6.23;;;18.00;48.30;;;;;;6134297;23;20709;-92
2021/04/28 21:13:40;;;;;;;9.73;7.30;;;18.20;49.00;;;;;;6133661;23;20379;-92
2021/04/28 21:16:09;;;;;;;8.50;7.27;;;18.00;49.20;;;;;;6134389;23;20254;-93
2021/04/28 21:18:43;;;;;;;6.33;5.83;;;17.90;48.80;;;;;;6134754;23;20407;-92
2021/04/28 21:21:09;;;;;;;7.27;6.03;;;18.10;48.20;;;;;;6134491;23;20379;-93
2021/04/28 21:23:43;;;;;;;10.60;6.80;;;18.10;48.40;;;;;;6134039;23;20918;-93
2021/04/28 21:26:09;;;;;;;7.13;6.43;;;18.00;48.10;;;;;;6134541;23;20155;-92
2021/04/28 21:28:47;;;;;;;7.20;6.60;;;18.00;48.20;;;;;;6134116;23;20382;-94
2021/04/28 21:31:13;;;;;;;6.70;6.07;;;17.90;48.30;;;;;;6134969;23;20545;-95
2021/04/28 21:33:39;;;;;;;7.90;7.30;;;17.90;47.90;;;;;;6133925;23;20525;-94
2021/04/28 21:36:22;;;;;;;7.17;6.50;;;17.80;48.40;;;;;;6160010;23;20211;-92
2021/04/28 21:38:48;;;;;;;7.50;6.30;;;17.70;49.10;;;;;;6158943;23;20171;-91
2021/04/28 21:41:53;;;;;;;7.53;6.93;;;17.80;49.20;;;;;;6158142;23;20678;-95
2021/04/28 21:44:19;;;;;;;7.50;6.70;;;17.50;49.00;;;;;;6133731;23;20147;-93
2021/04/28 21:47:10;;;;;;;6.77;6.27;;;17.70;49.50;;;;;;6159054;23;20371;-94
2021/04/28 21:49:35;;;;;;;6.23;5.43;;;17.70;49.30;;;;;;6159287;23;20151;-92
2021/04/28 21:52:20;;;;;;;7.00;6.40;;;17.60;49.20;;;;;;6158751;23;20479;-93
2021/04/28 21:54:46;;;;;;;8.80;8.00;;;17.90;48.80;;;;;;6158533;23;20181;-93
2021/04/28 21:57:12;;;;;;;8.30;7.50;;;17.50;48.40;;;;;;6158191;23;20454;-93
2021/04/28 22:00:06;;;;;;;7.27;6.57;;;17.40;49.20;;;;;;6158587;23;20144;-95
2021/04/28 22:02:32;;;;;;;7.57;6.87;;;17.30;49.40;;;;;;6159294;23;20152;-93
2021/04/28 22:05:07;;;;;;;8.37;7.57;;;17.20;49.70;;;;;;6159147;23;20367;-93
2021/04/28 22:07:32;;;;;;;8.57;6.40;;;17.60;49.80;;;;;;6158561;23;20149;-93
2021/04/28 22:10:26;;;;;;;8.60;7.77;;;17.20;50.00;;;;;;6162261;23;20804;-95
2021/04/28 22:12:52;;;;;;;8.70;7.17;;;17.10;50.20;;;;;;6158702;23;20140;-94
2021/04/28 22:15:17;;;;;;;7.43;6.73;;;17.30;51.10;;;;;;6158260;23;20484;-95
2021/04/28 22:17:46;;;;;;;9.13;7.17;;;17.30;50.70;;;;;;6158916;23;20144;-95
2021/04/28 22:20:12;;;;;;;7.50;6.90;;;17.30;51.00;;;;;;6158715;23;20140;-94
2021/04/28 22:22:58;;;;;;;12.60;8.30;;;17.10;50.80;;;;;;6158010;23;20384;-91
2021/04/28 22:25:23;;;;;;;8.43;7.63;;;17.30;51.60;;;;;;6158976;23;20406;-92
2021/04/28 22:27:50;;;;;;;7.83;7.13;;;17.40;51.40;;;;;;6159047;23;20819;-92
2021/04/28 22:30:39;;;;;;;6.90;6.30;;;17.40;51.40;;;;;;6158519;23;20236;-92
2021/04/28 22:33:05;;;;;;;8.10;7.40;;;17.30;51.20;;;;;;6158533;23;20368;-93
2021/04/28 22:35:31;;;;;;;7.63;6.90;;;17.30;50.70;;;;;;6154699;23;20497;-92
2021/04/28 22:41:26;;;;;;;9.33;7.23;;;16.90;51.10;;;;;;6160135;23;20139;-92
2021/04/28 22:43:52;;;;;;;9.03;7.03;;;17.10;51.60;;;;;;6133284;23;20470;-92
2021/04/28 22:46:32;;;;;;;9.00;8.33;;;17.00;51.20;;;;;;6158328;23;20376;-88
2021/04/28 22:48:58;;;;;;;8.30;7.60;;;17.00;51.00;;;;;;6157699;23;20226;-88
2021/04/28 22:51:42;;;;;;;8.50;7.80;;;17.10;51.60;;;;;;6157693;23;20375;-90
2021/04/28 22:54:08;;;;;;;9.93;8.93;;;17.00;52.00;;;;;;6158795;23;20148;-90
2021/04/28 22:56:33;;;;;;;8.70;7.80;;;16.90;53.30;;;;;;6158132;23;20371;-90
2021/04/28 22:59:18;;;;;;;9.77;8.87;;;17.10;52.40;;;;;;6157908;23;20383;-90
2021/04/28 23:01:44;;;;;;;7.70;7.00;;;17.30;52.70;;;;;;6158065;23;20206;-93
2021/04/28 23:04:10;;;;;;;7.27;6.67;;;17.00;51.90;;;;;;6157767;23;20380;-90
2021/04/28 23:06:51;;;;;;;8.90;7.97;;;17.00;51.80;;;;;;6158308;23;20184;-90
2021/04/28 23:09:17;;;;;;;8.27;7.57;;;17.00;52.40;;;;;;6158097;23;20379;-92
2021/04/28 23:11:44;;;;;;;10.40;9.50;;;17.00;52.70;;;;;;6158983;23;20376;-93
2021/04/28 23:14:09;;;;;;;9.97;8.63;;;17.30;53.00;;;;;;6157415;23;20301;-93
2021/04/28 23:16:42;;;;;;;8.03;7.40;;;16.90;52.70;;;;;;6134199;23;20442;-92
2021/04/28 23:19:08;;;;;;;9.43;8.63;;;16.70;53.10;;;;;;6157769;23;20479;-88
2021/04/28 23:21:33;;;;;;;7.53;6.90;;;16.90;53.30;;;;;;6157147;23;20379;-90
2021/04/28 23:23:59;;;;;;;8.03;7.23;;;17.00;52.70;;;;;;6158058;23;20186;-88
2021/04/28 23:26:25;;;;;;;9.20;8.40;;;16.80;52.50;;;;;;6157906;23;20808;-91
2021/04/28 23:28:55;;;;;;;8.90;8.20;;;16.60;52.90;;;;;;6159084;23;20159;-90
2021/04/28 23:31:20;;;;;;;12.07;9.30;;;16.70;53.60;;;;;;6159546;23;20151;-87
2021/04/28 23:33:46;;;;;;;8.73;8.10;;;16.60;53.70;;;;;;6157404;23;20380;-88
2021/04/28 23:36:11;;;;;;;9.50;8.70;;;16.60;54.30;;;;;;6132203;23;20184;-88
2021/04/28 23:42:12;;;;;;;9.23;8.43;;;16.40;54.30;;;;;;6158257;23;20223;-88
2021/04/28 23:44:38;;;;;;;11.37;8.23;;;16.30;54.60;;;;;;6132096;23;20376;-88
2021/04/28 23:47:29;;;;;;;11.63;8.20;;;16.30;54.60;;;;;;6131922;23;20393;-88